Time;durP1;ratioP1;P1;durP2;ratioP2;P2;SDS_P1;SDS_P2;PMS_P1;PMS_P2;Temp;Humidity;BMP_temperature;BMP_pressure;BME280_temperature;BME280_humidity;BME280_pressure;Samples;Min_cycle;Max_cycle;Signal;HPM_P1;HPM_P2
2023/03/07 00:00:43;;;;;;;23.07;11.60;;;;;;;2.04;83.96;99661.33;1772018;81;21764;-84
2023/03/07 00:03:50;;;;;;;21.68;11.60;;;;;;;1.93;84.28;99656.02;1770863;81;21185;-78
2023/03/07 00:06:55;;;;;;;21.95;11.50;;;;;;;1.84;84.84;99660.42;1772118;81;21169;-89
2023/03/07 00:10:01;;;;;;;19.48;11.28;;;;;;;1.76;85.45;99655.70;1770836;81;21228;-84
2023/03/07 00:13:08;;;;;;;15.15;9.60;;;;;;;1.70;86.19;99649.51;1770546;81;21200;-88
2023/03/07 00:16:16;;;;;;;16.00;9.73;;;;;;;1.68;87.14;99650.13;1771851;81;21149;-83
2023/03/07 00:19:23;;;;;;;16.00;10.05;;;;;;;1.68;88.13;99654.66;1771469;81;21165;-79
2023/03/07 00:22:29;;;;;;;17.57;10.48;;;;;;;1.69;89.25;99648.27;1771782;81;21200;-78
2023/03/07 00:25:36;;;;;;;17.37;9.53;;;;;;;1.71;90.19;99649.86;1771987;81;21702;-80
2023/03/07 00:28:36;;;;;;;15.15;9.45;;;;;;;1.74;90.96;99648.25;1771000;81;21231;-89
2023/03/07 00:31:41;;;;;;;16.65;9.13;;;;;;;1.77;91.90;99645.76;1771907;81;21156;-79
2023/03/07 00:34:48;;;;;;;20.60;10.43;;;;;;;1.78;92.73;99639.37;1770480;81;21176;-89
2023/03/07 00:37:53;;;;;;;16.15;9.50;;;;;;;1.75;93.46;99635.12;1771600;81;21732;-88
2023/03/07 00:41:10;;;;;;;15.32;8.83;;;;;;;1.70;94.26;99628.44;1771967;81;21212;-89
2023/03/07 00:44:10;;;;;;;14.85;9.20;;;;;;;1.67;95.22;99623.30;1770605;81;21247;-89
2023/03/07 00:47:04;;;;;;;15.68;10.25;;;;;;;1.60;96.25;99623.48;1770765;81;21635;-90
2023/03/07 00:49:50;;;;;;;18.35;9.03;;;;;;;1.54;97.14;99624.88;1771252;81;21198;-79
2023/03/07 00:52:42;;;;;;;18.98;9.93;;;;;;;1.50;97.93;99624.78;1771636;81;21260;-79
2023/03/07 00:55:36;;;;;;;14.95;8.80;;;;;;;1.50;98.74;99620.74;1771854;81;21749;-79
2023/03/07 00:58:43;;;;;;;16.57;10.88;;;;;;;1.48;99.48;99618.69;1771094;81;21196;-85
2023/03/07 01:01:49;;;;;;;14.38;8.80;;;;;;;1.47;100.00;99623.73;1771811;81;21153;-88
2023/03/07 01:04:56;;;;;;;18.15;10.38;;;;;;;1.45;100.00;99617.10;1770612;81;21191;-79
2023/03/07 01:08:02;;;;;;;21.37;10.48;;;;;;;1.45;100.00;99617.60;1771415;81;21188;-81
2023/03/07 01:11:11;;;;;;;19.85;10.75;;;;;;;1.45;100.00;99609.52;1770722;81;21180;-88
2023/03/07 01:14:17;;;;;;;15.50;9.88;;;;;;;1.45;100.00;99608.17;1770495;81;21207;-79
2023/03/07 01:17:24;;;;;;;18.50;10.30;;;;;;;1.44;100.00;99605.13;1770752;81;21149;-80
2023/03/07 01:20:31;;;;;;;16.80;10.13;;;;;;;1.44;100.00;99605.13;1770488;81;21773;-88
2023/03/07 01:23:37;;;;;;;16.90;9.65;;;;;;;1.45;100.00;99601.43;1770979;81;21204;-89
2023/03/07 01:26:44;;;;;;;17.62;10.95;;;;;;;1.45;100.00;99597.39;1771959;81;21196;-79
2023/03/07 01:29:50;;;;;;;19.42;9.98;;;;;;;1.44;100.00;99595.19;1771665;81;21180;-90
2023/03/07 01:33:04;;;;;;;17.55;10.03;;;;;;;1.44;100.00;99595.19;1770802;81;21247;-81
2023/03/07 01:36:04;;;;;;;20.88;10.93;;;;;;;1.44;100.00;99588.95;1772210;81;21141;-88
2023/03/07 01:39:20;;;;;;;17.92;10.48;;;;;;;1.43;100.00;99587.25;1771021;81;21192;-89
2023/03/07 01:42:28;;;;;;;21.65;10.48;;;;;;;1.42;100.00;99586.91;1771923;81;21176;-87
2023/03/07 01:45:47;;;;;;;18.75;10.10;;;;;;;1.43;100.00;99588.59;1772083;81;21136;-85
2023/03/07 01:49:10;;;;;;;17.48;9.80;;;;;;;1.42;100.00;99582.86;1771112;81;21192;-80
2023/03/07 01:52:33;;;;;;;16.30;9.68;;;;;;;1.40;100.00;99579.42;1771741;81;21207;-89
2023/03/07 01:55:41;;;;;;;21.48;10.18;;;;;;;1.38;100.00;99582.77;1771941;81;21729;-80
2023/03/07 01:58:48;;;;;;;20.85;11.70;;;;;;;1.37;100.00;99581.06;1782178;80;21176;-86
2023/03/07 02:01:53;;;;;;;20.05;12.70;;;;;;;1.37;100.00;99571.63;1784446;80;21167;-85
2023/03/07 02:05:24;;;;;;;26.52;14.30;;;;;;;1.35;100.00;99575.79;1785182;80;21179;-78
2023/03/07 02:08:29;;;;;;;;;;;;;;;1.33;100.00;99564.80;1787829;80;21756;-79
2023/03/07 02:11:35;;;;;;;23.57;14.47;;;;;;;1.36;100.00;99561.82;1784831;80;20225;-85
2023/03/07 02:14:41;;;;;;;25.15;14.47;;;;;;;1.38;100.00;99567.95;1785736;80;21656;-88
2023/03/07 02:17:50;;;;;;;23.52;13.35;;;;;;;1.39;100.00;99560.21;1785827;80;21203;-87
2023/03/07 02:21:16;;;;;;;23.60;14.47;;;;;;;1.39;100.00;99558.87;1785279;80;21187;-82
2023/03/07 02:24:39;;;;;;;22.75;13.90;;;;;;;1.39;100.00;99562.91;1785144;80;21175;-87
2023/03/07 02:27:50;;;;;;;21.85;12.55;;;;;;;1.38;100.00;99557.16;1753177;80;21752;-87
2023/03/07 02:31:10;;;;;;;18.90;11.22;;;;;;;1.35;100.00;99548.84;1749590;81;21182;-88
2023/03/07 02:34:33;;;;;;;22.32;11.10;;;;;;;1.37;100.00;99552.77;1752440;81;21458;-87
2023/03/07 02:37:45;;;;;;;19.80;10.53;;;;;;;1.35;100.00;99549.34;1752210;79;21213;-87
2023/03/07 02:40:50;;;;;;;18.25;10.28;;;;;;;1.37;100.00;99547.38;1751794;78;21177;-86
2023/03/07 02:43:51;;;;;;;16.48;9.40;;;;;;;1.36;100.00;99547.00;1748291;82;21216;-88
2023/03/07 02:46:45;;;;;;;19.20;9.98;;;;;;;1.35;100.00;99540.77;1731357;83;21723;-87
2023/03/07 02:49:31;;;;;;;17.15;10.30;;;;;;;1.37;100.00;99538.80;1721413;82;21220;-88
2023/03/07 02:52:26;;;;;;;19.65;9.30;;;;;;;1.36;100.00;99538.91;1717624;82;21193;-88
2023/03/07 02:55:32;;;;;;;19.32;10.28;;;;;;;1.37;100.00;99536.61;1717188;83;21244;-87
2023/03/07 02:58:39;;;;;;;18.23;10.13;;;;;;;1.36;100.00;99538.91;1730853;83;21263;-78
2023/03/07 03:01:46;;;;;;;16.73;10.05;;;;;;;1.36;100.00;99531.68;1698484;83;21228;-78
2023/03/07 03:04:51;;;;;;;20.17;10.25;;;;;;;1.33;100.00;99527.93;1727878;82;21172;-86
2023/03/07 03:07:57;;;;;;;16.77;11.03;;;;;;;1.31;100.00;99532.59;1730992;83;21205;-86
2023/03/07 03:11:05;;;;;;;26.23;13.22;;;;;;;1.27;100.00;99534.73;1718265;83;21255;-81
2023/03/07 03:14:11;;;;;;;24.75;11.73;;;;;;;1.25;100.00;99533.99;1747442;82;21750;-87
2023/03/07 03:17:18;;;;;;;21.75;11.78;;;;;;;1.26;100.00;99534.34;1731489;83;21177;-85
2023/03/07 03:20:24;;;;;;;22.82;12.82;;;;;;;1.28;100.00;99534.23;1717407;83;21716;-78
2023/03/07 03:23:32;;;;;;;18.07;11.12;;;;;;;1.31;100.00;99533.08;1747825;82;21216;-78
2023/03/07 03:26:37;;;;;;;18.37;10.60;;;;;;;1.35;100.00;99530.48;1729254;83;21600;-88
2023/03/07 03:29:45;;;;;;;18.40;11.18;;;;;;;1.39;100.00;99525.18;1772380;81;21705;-85
2023/03/07 03:32:52;;;;;;;18.15;11.22;;;;;;;1.38;100.00;99518.09;1714314;82;21216;-85
2023/03/07 03:35:59;;;;;;;17.60;11.73;;;;;;;1.32;100.00;99515.92;1772124;81;21189;-86
2023/03/07 03:39:09;;;;;;;21.87;12.93;;;;;;;1.27;100.00;99514.52;1733936;82;21212;-84
2023/03/07 03:42:16;;;;;;;17.30;9.83;;;;;;;1.23;100.00;99523.86;1771102;81;21808;-78
2023/03/07 03:45:23;;;;;;;24.02;13.85;;;;;;;1.19;100.00;99515.69;1772184;81;21550;-78
2023/03/07 03:48:29;;;;;;;29.30;15.13;;;;;;;1.19;100.00;99512.14;1734559;82;21204;-78
2023/03/07 03:51:35;;;;;;;29.82;19.37;;;;;;;1.20;100.00;99517.88;1770454;81;21788;-86
2023/03/07 03:54:41;;;;;;;34.78;18.73;;;;;;;1.24;100.00;99516.62;1771859;81;21212;-78
2023/03/07 03:57:48;;;;;;;40.85;22.52;;;;;;;1.25;100.00;99519.67;1770633;81;21181;-86
2023/03/07 04:00:54;;;;;;;37.93;23.83;;;;;;;1.27;100.00;99515.86;1734959;82;21173;-78
2023/03/07 04:04:02;;;;;;;42.03;25.25;;;;;;;1.26;100.00;99512.79;1770962;81;21235;-79
2023/03/07 04:07:03;;;;;;;38.65;23.10;;;;;;;1.26;100.00;99508.75;1735357;82;21177;-80
2023/03/07 04:10:12;;;;;;;35.50;18.98;;;;;;;1.25;100.00;99511.09;1772047;81;21194;-79
2023/03/07 04:13:19;;;;;;;40.00;22.42;;;;;;;1.23;100.00;99507.69;1770449;81;21177;-87
2023/03/07 04:16:25;;;;;;;39.00;20.37;;;;;;;1.22;100.00;99501.95;1772076;81;21220;-77
2023/03/07 04:19:32;;;;;;;33.25;19.73;;;;;;;1.19;100.00;99512.99;1772107;81;21172;-87
2023/03/07 04:22:38;;;;;;;36.73;18.95;;;;;;;1.19;100.00;99510.80;1734490;82;21204;-78
2023/03/07 04:25:45;;;;;;;35.45;20.35;;;;;;;1.14;100.00;99504.47;1771846;81;21192;-88
2023/03/07 04:28:55;;;;;;;31.42;16.73;;;;;;;1.08;100.00;99508.17;1734038;82;21228;-78
2023/03/07 04:32:04;;;;;;;28.95;15.48;;;;;;;1.00;100.00;99509.72;1772116;81;21232;-88
2023/03/07 04:35:13;;;;;;;26.52;15.68;;;;;;;0.98;100.00;99509.48;1772040;81;21168;-87
2023/03/07 04:38:14;;;;;;;30.50;14.93;;;;;;;0.93;100.00;99503.16;1733896;82;21773;-78
2023/03/07 04:41:25;;;;;;;37.42;15.32;;;;;;;0.92;100.00;99499.27;1770416;81;21171;-86
2023/03/07 04:44:43;;;;;;;28.52;18.12;;;;;;;0.92;100.00;99507.34;1735227;82;21185;-79
2023/03/07 04:47:48;;;;;;;30.17;15.93;;;;;;;1.00;100.00;99501.64;1770766;81;21200;-87
2023/03/07 04:51:00;;;;;;;29.27;16.02;;;;;;;1.02;100.00;99502.84;1735182;82;21173;-79
2023/03/07 04:54:06;;;;;;;30.43;15.03;;;;;;;1.02;100.00;99502.84;1770657;79;21765;-85
2023/03/07 04:57:14;;;;;;;24.70;13.32;;;;;;;1.11;100.00;99510.61;1770542;81;21244;-87
2023/03/07 05:00:21;;;;;;;25.35;13.90;;;;;;;1.12;100.00;99507.77;1770471;81;21766;-78
2023/03/07 05:03:27;;;;;;;22.62;13.83;;;;;;;1.19;100.00;99509.45;1734350;82;21263;-85
2023/03/07 05:06:34;;;;;;;25.45;14.87;;;;;;;1.23;100.00;99514.43;1770416;81;21164;-87
2023/03/07 05:09:40;;;;;;;24.57;13.78;;;;;;;1.28;100.00;99509.48;1771898;81;21180;-84
2023/03/07 05:12:45;;;;;;;29.00;15.48;;;;;;;1.31;100.00;99511.53;1770370;79;21196;-87
2023/03/07 05:15:59;;;;;;;29.55;14.23;;;;;;;1.34;100.00;99514.81;1770607;81;21153;-89
2023/03/07 05:19:05;;;;;;;28.73;14.85;;;;;;;1.44;100.00;99520.23;1770856;81;21188;-89
2023/03/07 05:22:13;;;;;;;27.75;14.20;;;;;;;1.52;100.00;99515.02;1770727;81;21787;-78
2023/03/07 05:25:21;;;;;;;26.35;14.85;;;;;;;1.61;100.00;99516.88;1771989;81;21161;-87
2023/03/07 05:28:27;;;;;;;23.80;13.55;;;;;;;1.67;100.00;99511.42;1734896;82;21876;-79
2023/03/07 05:31:35;;;;;;;27.27;14.45;;;;;;;1.76;100.00;99508.74;1777809;80;21255;-79
2023/03/07 05:34:45;;;;;;;26.77;15.10;;;;;;;1.84;100.00;99508.55;1742640;82;21777;-79
2023/03/07 05:37:50;;;;;;;24.55;13.93;;;;;;;1.90;100.00;99513.37;1743128;82;21196;-78
2023/03/07 05:40:56;;;;;;;22.62;13.22;;;;;;;1.94;100.00;99506.72;1743437;82;21220;-80
2023/03/07 05:44:02;;;;;;;21.55;12.40;;;;;;;2.03;100.00;99512.61;1742722;82;21161;-79
2023/03/07 05:47:07;;;;;;;24.98;14.07;;;;;;;2.08;100.00;99506.29;1743579;82;21177;-80
2023/03/07 05:50:14;;;;;;;25.50;13.55;;;;;;;2.16;100.00;99510.45;1743718;82;21269;-78
2023/03/07 05:53:20;;;;;;;24.57;12.98;;;;;;;2.23;100.00;99509.41;1742832;82;21238;-87
2023/03/07 05:56:27;;;;;;;20.10;12.70;;;;;;;2.29;100.00;99512.38;1735157;82;21175;-78
2023/03/07 05:59:31;;;;;;;20.82;12.30;;;;;;;2.37;100.00;99508.13;1741128;82;21216;-88
2023/03/07 06:02:37;;;;;;;19.65;12.18;;;;;;;2.46;100.00;99516.71;1730429;82;21709;-87
2023/03/07 06:05:43;;;;;;;20.57;12.40;;;;;;;2.51;100.00;99516.62;1728632;82;21179;-79
2023/03/07 06:08:49;;;;;;;23.57;12.10;;;;;;;2.58;100.00;99511.49;1691775;84;21148;-78
2023/03/07 06:11:48;;;;;;;;;;;;;;;2.73;100.00;99510.06;1689586;85;21236;-84
2023/03/07 06:14:53;;;;;;;19.25;12.07;;;;;;;2.90;100.00;99519.23;1700765;84;20194;-79
2023/03/07 06:18:01;;;;;;;18.77;11.28;;;;;;;3.06;100.00;99512.73;1713843;83;21191;-80
2023/03/07 06:21:10;;;;;;;21.42;11.83;;;;;;;3.17;100.00;99506.78;1702549;82;21175;-89
2023/03/07 06:24:16;;;;;;;22.02;12.23;;;;;;;3.29;100.00;99494.30;1709020;82;21213;-81
2023/03/07 06:27:22;;;;;;;21.85;12.58;;;;;;;3.37;100.00;99505.69;1690389;82;21185;-80
2023/03/07 06:30:29;;;;;;;34.55;14.85;;;;;;;3.46;100.00;99500.73;1733466;82;21686;-89
2023/03/07 06:33:36;;;;;;;37.42;17.60;;;;;;;3.59;100.00;99490.92;1714527;82;21241;-87
2023/03/07 06:36:43;;;;;;;26.42;14.00;;;;;;;3.64;100.00;99487.26;1768186;80;21682;-88
2023/03/07 06:39:50;;;;;;;16.55;10.70;;;;;;;3.71;100.00;99492.90;1733339;82;21157;-88
2023/03/07 06:42:55;;;;;;;21.17;11.78;;;;;;;3.78;100.00;99494.85;1773915;79;21172;-89
2023/03/07 06:46:01;;;;;;;19.67;11.40;;;;;;;3.88;100.00;99497.48;1765790;81;21192;-88
2023/03/07 06:49:07;;;;;;;21.40;11.83;;;;;;;4.00;100.00;99500.80;1724575;82;21229;-88
2023/03/07 06:52:13;;;;;;;18.07;11.38;;;;;;;4.14;100.00;99508.89;1772561;79;21188;-89
2023/03/07 06:55:20;;;;;;;20.35;13.65;;;;;;;4.27;100.00;99502.08;1704016;83;21256;-89
2023/03/07 06:58:27;;;;;;;19.73;11.95;;;;;;;4.48;100.00;99501.77;1705576;82;21228;-89
2023/03/07 07:01:34;;;;;;;21.95;11.22;;;;;;;4.68;100.00;99496.16;1765125;79;21170;-88
2023/03/07 07:04:42;;;;;;;22.02;10.82;;;;;;;4.80;100.00;99502.52;1756874;81;21192;-88
2023/03/07 07:07:48;;;;;;;23.87;11.83;;;;;;;4.94;100.00;99511.93;1761198;79;21191;-89
2023/03/07 07:10:54;;;;;;;15.88;9.50;;;;;;;5.05;100.00;99522.48;1765001;79;21457;-90
2023/03/07 07:14:01;;;;;;;25.05;12.98;;;;;;;5.12;100.00;99516.75;1761180;81;21686;-88
2023/03/07 07:17:09;;;;;;;18.85;10.28;;;;;;;5.12;100.00;99516.75;1759650;80;21150;-89
2023/03/07 07:20:17;;;;;;;17.32;10.58;;;;;;;5.20;100.00;99514.61;1767003;81;21138;-78
2023/03/07 07:23:19;;;;;;;15.65;10.70;;;;;;;5.24;100.00;99510.56;1764297;80;21173;-89
2023/03/07 07:26:11;;;;;;;18.45;10.88;;;;;;;5.36;100.00;99501.62;1764468;81;21140;-88
2023/03/07 07:29:16;;;;;;;18.45;11.12;;;;;;;5.59;100.00;99503.25;1762127;80;21153;-78
2023/03/07 07:33:10;;;;;;;18.35;11.83;;;;;;;5.78;100.00;99501.61;1764386;81;21432;-89
2023/03/07 07:36:17;;;;;;;19.10;11.93;;;;;;;5.87;100.00;99494.34;1731911;82;21159;-90
2023/03/07 07:39:25;;;;;;;18.37;11.63;;;;;;;5.82;100.00;99486.70;1748129;81;21200;-89
2023/03/07 07:42:30;;;;;;;24.67;12.23;;;;;;;5.94;100.00;99481.01;1765682;81;21255;-89
2023/03/07 07:45:41;;;;;;;24.57;13.00;;;;;;;6.10;100.00;99475.59;1766409;81;21749;-89
2023/03/07 07:48:47;;;;;;;19.23;12.07;;;;;;;6.24;99.99;99480.36;1741949;81;21793;-89
2023/03/07 07:51:53;;;;;;;28.67;14.98;;;;;;;6.40;99.75;99480.89;1759953;81;21165;-89
2023/03/07 07:55:00;;;;;;;23.35;12.85;;;;;;;6.48;98.18;99482.73;1763513;81;21839;-88
2023/03/07 07:58:05;;;;;;;24.20;13.98;;;;;;;6.50;97.11;99484.80;1761004;81;21761;-89
2023/03/07 08:01:26;;;;;;;22.80;12.30;;;;;;;6.58;96.51;99473.90;1722186;82;21153;-87
2023/03/07 08:04:31;;;;;;;;;;;;;;;6.73;96.30;99478.13;1766917;81;21139;-88
2023/03/07 08:07:36;;;;;;;19.98;12.65;;;;;;;6.87;96.64;99476.94;1772847;81;20195;-88
2023/03/07 08:10:44;;;;;;;22.50;13.22;;;;;;;7.00;96.12;99472.81;1769098;80;21220;-89
2023/03/07 08:13:50;;;;;;;23.18;12.95;;;;;;;7.10;94.85;99474.83;1766262;81;21200;-88
2023/03/07 08:16:55;;;;;;;17.95;11.78;;;;;;;7.21;94.27;99478.55;1770036;81;21180;-88
2023/03/07 08:20:07;;;;;;;24.60;13.53;;;;;;;7.26;93.48;99484.31;1760137;80;21156;-88
2023/03/07 08:23:10;;;;;;;22.70;12.25;;;;;;;7.30;92.35;99488.90;1717856;82;21710;-89
2023/03/07 08:26:16;;;;;;;18.73;12.05;;;;;;;7.41;92.96;99483.91;1763619;81;21188;-88
2023/03/07 08:29:24;;;;;;;23.92;14.58;;;;;;;7.57;92.95;99484.34;1761987;81;21752;-88
2023/03/07 08:32:29;;;;;;;22.73;13.75;;;;;;;7.60;90.47;99486.72;1770170;81;21213;-88
2023/03/07 08:35:34;;;;;;;23.75;13.28;;;;;;;7.47;88.05;99492.39;1759167;81;21172;-88
2023/03/07 08:38:39;;;;;;;21.10;12.75;;;;;;;7.30;88.47;99498.42;1758081;81;21237;-88
2023/03/07 08:41:44;;;;;;;26.17;14.03;;;;;;;7.24;87.85;99491.78;1760054;81;21228;-87
2023/03/07 08:44:50;;;;;;;26.37;12.58;;;;;;;7.25;89.00;99483.98;1757238;81;21595;-87
2023/03/07 08:48:02;;;;;;;25.45;13.40;;;;;;;7.43;89.57;99487.31;1755571;81;21239;-79
2023/03/07 08:51:15;;;;;;;22.75;13.72;;;;;;;7.58;88.22;99484.70;1719212;83;21138;-87
2023/03/07 08:54:21;;;;;;;21.73;12.45;;;;;;;7.60;87.86;99479.91;1723992;82;21799;-88
2023/03/07 08:57:27;;;;;;;23.70;12.55;;;;;;;7.74;88.26;99486.48;1711926;83;21259;-87
2023/03/07 09:00:32;;;;;;;19.55;12.25;;;;;;;7.84;86.58;99484.38;1728217;83;21247;-87
2023/03/07 09:03:38;;;;;;;28.25;13.10;;;;;;;7.85;85.67;99486.58;1709560;83;21800;-87
2023/03/07 09:06:44;;;;;;;23.07;13.03;;;;;;;7.83;85.14;99480.48;1714998;83;21164;-87
2023/03/07 09:09:50;;;;;;;18.42;11.45;;;;;;;7.81;84.42;99470.27;1691833;83;21189;-79
2023/03/07 09:12:57;;;;;;;22.90;13.62;;;;;;;7.84;83.94;99474.00;1696306;84;21721;-87
2023/03/07 09:16:03;;;;;;;25.17;13.10;;;;;;;7.88;83.87;99471.27;1712087;82;21838;-78
2023/03/07 09:19:08;;;;;;;20.68;12.85;;;;;;;7.91;83.46;99471.76;1713960;83;21188;-78
2023/03/07 09:22:15;;;;;;;21.20;13.53;;;;;;;7.98;82.66;99475.96;1701689;83;21741;-79
2023/03/07 09:25:21;;;;;;;32.70;13.85;;;;;;;8.14;80.62;99473.66;1707398;83;21785;-79
2023/03/07 09:28:27;;;;;;;23.25;13.18;;;;;;;8.33;80.55;99466.37;1710175;83;21205;-78
2023/03/07 09:31:33;;;;;;;20.95;12.35;;;;;;;8.54;78.82;99471.15;1722272;82;21189;-79
2023/03/07 09:34:41;;;;;;;20.82;11.83;;;;;;;8.72;78.18;99470.83;1690865;83;22543;-78
2023/03/07 09:37:46;;;;;;;25.72;12.93;;;;;;;8.85;76.22;99458.77;1694326;83;21169;-79
2023/03/07 09:40:54;;;;;;;19.45;12.20;;;;;;;8.98;75.66;99464.08;1710674;83;21149;-79
2023/03/07 09:44:25;;;;;;;19.60;11.97;;;;;;;9.13;74.71;99459.51;1707788;83;21730;-79
2023/03/07 09:47:58;;;;;;;22.70;12.23;;;;;;;9.20;72.41;99450.36;1724213;82;21204;-79
2023/03/07 09:51:20;;;;;;;21.77;11.73;;;;;;;9.16;70.64;99449.56;1719347;82;21146;-79
2023/03/07 09:54:33;;;;;;;19.65;11.38;;;;;;;9.07;70.27;99445.23;1718449;82;21782;-79
2023/03/07 09:57:46;;;;;;;19.82;12.05;;;;;;;9.03;68.05;99441.18;1724969;83;22055;-79
2023/03/07 10:00:52;;;;;;;21.75;13.50;;;;;;;9.05;67.90;99437.25;1719399;82;21856;-79
2023/03/07 10:04:13;;;;;;;21.17;12.55;;;;;;;9.15;67.65;99431.50;1709048;83;21260;-79
2023/03/07 10:07:11;;;;;;;20.48;13.65;;;;;;;9.19;66.89;99432.30;1718195;83;21192;-79
2023/03/07 10:10:13;;;;;;;22.62;12.85;;;;;;;9.14;66.64;99424.36;1692098;83;21217;-79
2023/03/07 10:13:43;;;;;;;20.25;13.18;;;;;;;9.12;67.06;99420.95;1709923;82;21212;-79
2023/03/07 10:17:35;;;;;;;25.92;14.25;;;;;;;9.09;66.25;99416.74;1715666;82;21284;-79
2023/03/07 10:20:50;;;;;;;23.60;13.22;;;;;;;9.04;67.71;99408.28;1715214;82;21587;-79
2023/03/07 10:24:19;;;;;;;23.67;13.13;;;;;;;9.05;67.05;99400.94;1708834;82;21717;-88
2023/03/07 10:27:24;;;;;;;24.07;15.32;;;;;;;9.09;68.12;99401.73;1716288;82;21253;-87
2023/03/07 10:30:30;;;;;;;22.82;15.15;;;;;;;9.18;67.06;99394.30;1716192;83;21196;-88
2023/03/07 10:33:35;;;;;;;29.65;14.55;;;;;;;9.17;65.24;99388.01;1715166;82;21201;-88
2023/03/07 10:36:49;;;;;;;21.07;13.62;;;;;;;9.22;63.50;99392.86;1732985;82;21184;-86
2023/03/07 10:40:03;;;;;;;25.15;13.62;;;;;;;9.27;60.45;99378.66;1724730;79;21200;-87
2023/03/07 10:43:09;;;;;;;22.13;14.28;;;;;;;9.31;60.81;99383.53;1721373;79;21244;-88
2023/03/07 10:46:30;;;;;;;28.70;14.05;;;;;;;9.42;60.73;99377.61;1719808;82;22075;-87
2023/03/07 10:49:51;;;;;;;29.60;16.05;;;;;;;9.50;60.84;99365.71;1716971;80;21161;-88
2023/03/07 10:53:03;;;;;;;23.65;14.13;;;;;;;9.52;57.01;99377.82;1707351;79;21284;-89
2023/03/07 10:56:25;;;;;;;26.05;14.73;;;;;;;9.46;57.97;99365.27;1703151;83;21212;-87
2023/03/07 10:59:32;;;;;;;25.27;14.83;;;;;;;9.41;58.58;99354.58;1708191;83;21202;-88
2023/03/07 11:02:49;;;;;;;25.00;15.88;;;;;;;9.40;59.07;99353.73;1711521;83;21232;-80
2023/03/07 11:05:56;;;;;;;23.47;15.15;;;;;;;9.46;58.13;99340.70;1718638;82;21260;-79
2023/03/07 11:09:00;;;;;;;26.42;15.65;;;;;;;9.53;57.22;99346.23;1712236;82;21547;-79
2023/03/07 11:12:19;;;;;;;21.33;13.75;;;;;;;9.65;55.53;99344.69;1709251;82;21733;-89
2023/03/07 11:15:27;;;;;;;21.30;13.88;;;;;;;9.72;53.86;99335.19;1701838;83;21180;-79
2023/03/07 11:18:47;;;;;;;21.10;13.35;;;;;;;9.78;52.60;99341.23;1715914;82;21623;-88
2023/03/07 11:21:56;;;;;;;;;;;;;;;9.80;52.73;99333.70;1718515;83;22089;-89
2023/03/07 11:25:12;;;;;;;22.13;12.80;;;;;;;9.83;53.32;99330.56;1702572;83;20202;-78
2023/03/07 11:28:41;;;;;;;18.95;11.73;;;;;;;9.82;53.32;99335.70;1694865;83;21655;-89
2023/03/07 11:31:58;;;;;;;21.15;13.30;;;;;;;9.76;53.31;99325.57;1711668;83;21195;-89
2023/03/07 11:35:14;;;;;;;16.75;11.05;;;;;;;9.79;52.84;99331.18;1710341;83;21557;-87
2023/03/07 11:38:44;;;;;;;19.82;12.47;;;;;;;9.84;52.38;99338.27;1698059;83;21249;-79
2023/03/07 11:41:54;;;;;;;21.65;11.80;;;;;;;9.81;52.62;99331.81;1760239;80;21829;-78
2023/03/07 11:45:08;;;;;;;21.52;12.58;;;;;;;9.85;52.78;99330.39;1729502;82;22156;-87
2023/03/07 11:48:51;;;;;;;21.50;11.57;;;;;;;9.90;51.96;99328.75;1759497;81;21193;-88
2023/03/07 11:52:35;;;;;;;22.35;13.05;;;;;;;9.93;50.98;99326.17;1760925;80;21556;-88
2023/03/07 11:56:04;;;;;;;22.98;11.60;;;;;;;9.99;50.58;99319.38;1749408;81;21200;-88
2023/03/07 11:59:38;;;;;;;19.12;12.20;;;;;;;10.10;50.34;99322.63;1758369;81;21192;-80
2023/03/07 12:02:52;;;;;;;18.27;12.35;;;;;;;10.21;50.19;99312.53;1761959;81;21772;-79
2023/03/07 12:06:26;;;;;;;17.00;11.20;;;;;;;10.36;49.14;99313.31;1753339;81;21753;-78
2023/03/07 12:09:56;;;;;;;17.45;11.55;;;;;;;10.42;48.68;99313.87;1725543;82;21209;-88
2023/03/07 12:13:22;;;;;;;22.07;11.83;;;;;;;10.47;48.70;99310.01;1774506;80;21248;-80
2023/03/07 12:16:51;;;;;;;18.45;11.95;;;;;;;10.53;48.66;99304.26;1687478;81;21242;-78
2023/03/07 12:20:24;;;;;;;21.75;10.70;;;;;;;10.61;48.06;99312.84;1755366;81;21165;-88
2023/03/07 12:23:41;;;;;;;16.77;10.40;;;;;;;10.62;47.54;99303.05;1700539;83;21221;-88
2023/03/07 12:27:10;;;;;;;18.75;10.78;;;;;;;10.64;47.54;99294.67;1753349;81;21173;-88
2023/03/07 12:30:53;;;;;;;24.60;12.07;;;;;;;10.65;46.03;99290.88;1764551;81;21214;-78
2023/03/07 12:34:10;;;;;;;14.93;10.03;;;;;;;10.57;46.96;99296.51;1763360;80;21251;-89
2023/03/07 12:37:24;;;;;;;17.30;10.38;;;;;;;10.53;46.28;99289.75;1762115;80;21122;-79
2023/03/07 12:40:51;;;;;;;23.27;13.05;;;;;;;10.45;46.75;99288.03;1733203;82;21720;-80
2023/03/07 12:44:01;;;;;;;18.92;10.80;;;;;;;10.43;46.04;99284.64;1712008;83;21784;-89
2023/03/07 12:47:35;;;;;;;20.57;11.63;;;;;;;10.42;46.48;99272.86;1708617;83;21777;-79
2023/03/07 12:51:17;;;;;;;23.02;11.28;;;;;;;10.40;46.77;99276.86;1697001;83;21276;-79
2023/03/07 12:54:40;;;;;;;19.57;10.72;;;;;;;10.41;47.15;99274.44;1733890;82;21524;-78
2023/03/07 12:57:49;;;;;;;20.88;10.95;;;;;;;10.37;46.89;99273.98;1709320;83;21242;-79
2023/03/07 13:01:05;;;;;;;16.12;10.75;;;;;;;10.32;46.79;99277.01;1738274;82;21201;-79
2023/03/07 13:04:26;;;;;;;24.57;12.03;;;;;;;10.31;47.17;99267.13;1709255;83;21208;-88
2023/03/07 13:07:38;;;;;;;20.92;10.88;;;;;;;10.33;47.79;99254.93;1713073;82;21204;-89
2023/03/07 13:10:44;;;;;;;16.37;10.35;;;;;;;10.38;46.84;99257.91;1685151;85;21235;-79
2023/03/07 13:13:57;;;;;;;15.63;10.25;;;;;;;10.41;46.98;99248.47;1714772;82;21192;-78
2023/03/07 13:17:02;;;;;;;21.57;10.78;;;;;;;10.43;46.54;99255.41;1733215;81;21217;-78
2023/03/07 13:20:09;;;;;;;18.62;10.90;;;;;;;10.44;46.97;99257.13;1736402;81;21741;-79
2023/03/07 13:23:22;;;;;;;24.27;11.30;;;;;;;10.45;47.47;99249.23;1705199;83;21224;-89
2023/03/07 13:26:30;;;;;;;20.45;10.93;;;;;;;10.46;47.04;99245.98;1725646;83;21780;-79
2023/03/07 13:30:12;;;;;;;17.20;10.13;;;;;;;10.46;47.18;99247.34;1717391;83;21516;-89
2023/03/07 13:33:28;;;;;;;15.05;9.38;;;;;;;10.46;47.68;99243.24;1680602;83;21778;-80
2023/03/07 13:36:44;;;;;;;18.07;9.48;;;;;;;10.40;46.78;99237.22;1699609;84;21201;-78
2023/03/07 13:39:49;;;;;;;16.40;9.53;;;;;;;10.36;47.05;99242.23;1684934;84;21233;-88
2023/03/07 13:42:55;;;;;;;16.65;10.15;;;;;;;10.31;46.88;99237.06;1664286;85;21227;-89
2023/03/07 13:46:42;;;;;;;17.02;10.08;;;;;;;10.24;47.04;99228.80;1686639;84;21181;-89
2023/03/07 13:49:51;;;;;;;16.62;10.10;;;;;;;10.21;47.39;99220.98;1690206;84;21253;-79
2023/03/07 13:52:56;;;;;;;17.40;9.40;;;;;;;10.15;47.64;99213.05;1701693;84;22236;-90
2023/03/07 14:00:34;;;;;;;17.95;10.13;;;;;;;10.09;48.49;99215.74;1684688;84;21151;-89
2023/03/07 14:03:46;;;;;;;18.12;9.43;;;;;;;10.05;49.29;99222.65;1699916;84;21213;-89
2023/03/07 14:07:12;;;;;;;15.88;8.85;;;;;;;10.00;49.15;99219.14;1702588;84;21781;-89
2023/03/07 14:10:31;;;;;;;21.37;9.20;;;;;;;9.95;48.78;99227.94;1703270;84;21193;-79
2023/03/07 14:14:04;;;;;;;20.88;11.28;;;;;;;9.83;48.96;99217.74;1691887;84;21200;-79
2023/03/07 14:17:18;;;;;;;15.72;8.78;;;;;;;9.74;48.90;99221.16;1688675;84;21217;-78
2023/03/07 14:20:51;;;;;;;12.53;7.75;;;;;;;9.65;48.84;99223.72;1693537;84;21277;-89
2023/03/07 14:23:59;;;;;;;16.52;8.93;;;;;;;9.56;48.85;99226.25;1700312;84;21868;-77
2023/03/07 14:27:08;;;;;;;14.70;8.23;;;;;;;9.50;48.99;99222.40;1705424;84;21258;-79
2023/03/07 14:30:21;;;;;;;16.10;8.90;;;;;;;9.48;49.21;99222.61;1705639;84;21261;-79
2023/03/07 14:33:28;;;;;;;15.38;10.55;;;;;;;9.45;49.50;99207.97;1683758;84;21217;-79
2023/03/07 14:36:36;;;;;;;12.82;8.50;;;;;;;9.40;49.57;99211.81;1693106;84;21240;-79
2023/03/07 14:40:21;;;;;;;15.28;9.48;;;;;;;9.32;49.84;99211.97;1705434;83;21262;-89
2023/03/07 14:44:04;;;;;;;14.83;9.20;;;;;;;9.29;50.00;99210.98;1738811;82;21247;-78
2023/03/07 14:47:31;;;;;;;14.80;8.55;;;;;;;9.24;50.37;99203.90;1739138;82;21234;-79